Airport View

Enter AWOS ICAO identifier for current METAR.

ex. KFNL

KBEC 191335Z AUTO 07011KT 10SM SCT110 M05/M08 A3031 RMK AO2 T10501078

19 Feb 2019 13:49

Frequency: 119.45

Phone: 316-515-7116

Other Area AWOS: KAAO - KIAB - K3AU - K1K1

TAF KIAB 191000Z 1910/2016 07009KT 9999 OVC100 QNH3024INS BECMG 1920/1921 09012KT 9000 -SN BKN030 550509 QNH3011INS BECMG 1923/1924 07012KT 0400 +SN BKN002 OVC005 550509 QNH3003INS BECMG 2008/2009 VRB06KT 2400 SN BR OVC004 QNH2988INS BECMG 2012/2013 28006KT 9999 NSW OVC003 QNH2978INS TX01/1919Z TNM06/1911Z